Port Moresby Jacksons International Airport

AYPY · National Capital, Papua New Guinea

METAR history AYPY · Port Moresby Jacksons International Airport

Below you see METARs of the last few days. Select a year to browse through older METARs, from the year 2007 onwards.

December 5, 2022

Time Code Weather Temp. Visibility Ceiling Wind METAR/SPECI
20:00
V
27 °C 10 km+ - 140° 140° 10 kt METAR AYPY 051000Z 14010KT 9999 FEW020 FEW050 27/24 Q1008
19:00
V
28 °C 10 km+ - 160° 160° 15 kt METAR AYPY 050900Z 16015KT 9999 FEW020 SCT070 28/24 Q1007
18:00
V
28 °C 10 km+ - 180° 180° 15 kt METAR AYPY 050800Z 18015KT 9999 FEW020 FEW035 28/24 Q1007=
17:00
V
29 °C 10 km+ - 170° 170° 15 kt METAR AYPY 050700Z 17015KT 9999 FEW035 29/24 Q1005
16:00
V
30 °C 10 km+ - 170° 170° 10 kt METAR AYPY 050600Z 17010KT 9999 SCT035 30/24 Q1005
14:00
V
31 °C 10 km+ - 170° 170° 12 kt METAR AYPY 050400Z 17012KT 9999 SCT035 SCT050 31/23 Q1006
13:00
V
32 °C 10 km+ - 170° 170° 10 kt METAR AYPY 050300Z 17010KT 9999 FEW035 FEW050 32/22 Q1006=
12:00
V
31 °C 10 km+ - 160° 160° 10 kt METAR AYPY 050200Z 16010KT 9999 FEW030 FEW050 31/23 Q1007
11:00
V
31 °C 10 km+ - 160° 160° 10 kt METAR AYPY 050100Z 16010KT 9999 FEW030 FEW050 31/22 Q1008
10:00
V
30 °C 10 km+ - 140° 140° 5 - 10 kt METAR AYPY 050000Z 14005G10KT 9999 HZ FEW030 SCT050 30/23 Q1009
09:00
V
29 °C 10 km+ - Var Var 3 kt METAR AYPY 042300Z VRB03KT 9999 FEW050 29/23 Q1009
08:00
V
28 °C 10 km+ - Var Var 3 kt METAR AYPY 042200Z VRB03KT 9999 FEW030 28/23 Q1009
07:00
V
25 °C 10 km+ - Var Var 3 kt METAR AYPY 042100Z VRB03KT 9999 FEW050 25/22 Q1008
06:00
V
24 °C 10 km+ - Var Var 3 kt METAR AYPY 042000Z VRB03KT 9999 SCT070 24/22 Q1007=
05:00
V
24 °C 10 km+ - Var Var 4 kt METAR AYPY 041900Z VRB04KT 9999 FEW050 24/22 Q1007
04:00
V
24 °C 10 km+ - Var Var 2 kt METAR AYPY 041800Z VRB02KT 9999 FEW050 24/23 Q1007
03:00
V
24 °C 10 km+ - Var Var 2 kt METAR AYPY 041700Z VRB02KT 9999 SKC 24/23 Q1007
01:00
V
25 °C 10 km+ - Var Var 4 kt METAR AYPY 041500Z VRB04KT 9999 FEW030 25/23 Q1008
00:00
V
25 °C 10 km+ - 340° 340° 3 kt METAR AYPY 041400Z 34003KT 9999 FEW025 25/23 Q1008=

December 4, 2022

Time Code Weather Temp. Visibility Ceiling Wind METAR/SPECI
22:00
V
25 °C 10 km+ - Var Var 3 kt METAR AYPY 041200Z VRB03KT 9999 FEW050 25/24 Q1009
21:00
V
26 °C 10 km+ - Var Var 3 kt METAR AYPY 041100Z VRB03KT 9999 FEW050 26/23 Q1008
20:00
V
26 °C 10 km+ - Var Var 3 kt METAR AYPY 041000Z VRB03KT 9999 FEW030 SCT050 26/23 Q1008
19:00
V
27 °C 10 km+ - Var Var 3 kt METAR AYPY 040900Z VRB03KT 9999 FEW030 SCT050 27/23 Q1007
18:00
V
28 °C 10 km+ - Var Var 3 kt METAR AYPY 040800Z VRB03KT 9999 SCT050 28/23 Q1007
17:00
V
29 °C 10 km+ - 270° 270° 10 kt METAR AYPY 040700Z 27010KT 9999 SCT050 29/22 Q1006
16:00
V
29 °C 10 km+ - 260° 260° 10 - 15 kt METAR AYPY 040600Z 26010G15KT 9999 FEW020 SCT030 29/22 Q1005
15:00
V
30 °C 10 km+ - 260° 260° 10 - 20 kt METAR AYPY 040500Z 26010G20KT 9999 FEW020 SCT030 30/25 Q1005
14:00
V
32 °C 10 km+ - 270° 270° 10 - 20 kt METAR AYPY 040400Z 27010G20KT 9999 SCT035 32/23 Q1005
13:00
V
32 °C 10 km+ - 270° 270° 10 - 20 kt METAR AYPY 040300Z 27010G20KT 9999 SCT045 32/23 Q1006
12:00
V
31 °C 10 km+ - 330° 330° 15 - 20 kt METAR AYPY 040200Z 33015G20KT 9999 SCT045 31/23 Q1006
11:00
V
31 °C 10 km+ - 330° 330° 15 kt METAR AYPY 040100Z 33015KT 9999 FEW030 31/24 Q1007
10:00
V
30 °C 10 km+ - 320° 320° 10 - 20 kt METAR AYPY 040000Z 32010G20KT 9999 SCT050 30/24 Q1008
09:00
V
29 °C 10 km+ - 320° 320° 10 kt METAR AYPY 032300Z 32010KT 9999 SCT050 29/25 Q1008
08:00
V
27 °C 10 km+ - 350° 350° 10 kt METAR AYPY 032200Z 35010KT 9999 SCT050 27/24 Q1007
07:00
V
25 °C 10 km+ - 330° 330° 7 kt METAR AYPY 032100Z 33007KT 9999 FEW008 SCT050 25/24 Q1007
06:00
V
24 °C 10 km+ - 330° 330° 5 kt METAR AYPY 032000Z 33005KT 9999 FEW020 SCT050 24/23 Q1006
05:00
V
24 °C 10 km+ - Var Var 3 kt METAR AYPY 031900Z VRB03KT 9999 SCT050 24/24 Q1006
04:00
V
24 °C 10 km+ - Var Var 3 kt METAR AYPY 031800Z VRB03KT 9999 SCT050 24/24 Q1006
03:00
V
24 °C 10 km+ - Var Var 3 kt METAR AYPY 031700Z VRB03KT 9999 SCT050 24/24 Q1006
01:00
V
25 °C 10 km+ 10,000 ft 300° 300° 3 kt METAR AYPY 031500Z 30003KT 9999 SHRA FEW050 BKN100 25/24 Q1006

We and third parties follow your internet behavior on our website with cookies. If you continue, we assume you agree with our cookie policy.